Flight Track Log - Related Links

Times and Time Zones

All times are in EDT time to prevent confusion due to time zone crossing. See the RPA3392 flight status page for this flight to view local times or setup timezone preferences in your user account.

Time Position Orientation Groundspeed Altitude Reporting Facility
EDT Latitude Longitude Course Direction KTS MPH feet Rate Location/Type
Tue 06:34:27 PM 44.8500 -93.2000 117° Southeast 166 191 2,200  Level Minneapolis TRACON
Tue 06:35:13 PM 44.8231 -93.1550 130° Southeast 196 226 3,200 1,611 Climbing Minneapolis Center
Tue 06:36:00 PM 44.7616 -92.7829 111° Southeast  Level Estimated
Tue 06:36:15 PM 44.7903 -93.0678 118° Southeast 249 287 5,100  Level Minneapolis Center
Tue 06:37:00 PM 44.7211 -92.6370 113° Southeast  Level Estimated
Tue 06:37:17 PM 44.7617 -92.9669 112° Southeast 274 315 7,400  Level Minneapolis Center
Tue 06:38:00 PM 44.6604 -92.5058 123° Southeast  Level FlightAware Approximate
Tue 06:38:19 PM 44.7328 -92.8586 111° Southeast 294 338 9,400  Level Minneapolis Center
Tue 06:39:00 PM 44.6075 -92.3580 117° Southeast  Level FlightAware Approximate
Tue 06:39:21 PM 44.7019 -92.7433 111° Southeast 313 360 11,400  Level Minneapolis Center
Tue 06:40:23 PM 44.6683 -92.6214 111° Southeast 334 384 13,700 2,468 Climbing Minneapolis Center
Tue 06:41:25 PM 44.6275 -92.4703 111° Southeast 345 397 16,500 2,323 Climbing Minneapolis Center
Tue 06:42:27 PM 44.5914 -92.3433 112° Southeast 351 404 18,500 1,839 Climbing Minneapolis Center
Tue 06:43:29 PM 44.5544 -92.2067 111° Southeast 367 422 20,300 1,742 Climbing Minneapolis Center
Tue 06:44:31 PM 44.4897 -92.0828 126° Southeast 386 444 22,100 1,694 Climbing Minneapolis Center
Tue 06:45:33 PM 44.4256 -91.9567 125° Southeast 398 458 23,800 1,694 Climbing Minneapolis Center
Tue 06:46:35 PM 44.3478 -91.7986 124° Southeast 408 470 25,600 1,536 Climbing Minneapolis Center
Tue 06:47:38 PM 44.2939 -91.6506 117° Southeast 425 489 27,000 1,200 Climbing Minneapolis Center
Tue 06:48:40 PM 44.2322 -91.5078 121° Southeast 431 496 28,100 976 Climbing Minneapolis Center
Tue 06:49:41 PM 44.1708 -91.4000 128° Southeast 440 506 29,000 1,065 Climbing Minneapolis Center
Tue 06:50:44 PM 44.0769 -91.2261 127° Southeast 449 517 30,300 1,056 Climbing Minneapolis Center
Tue 06:51:46 PM 44.0094 -91.0736 122° Southeast 461 531 31,200 968 Climbing Minneapolis Center
Tue 06:52:48 PM 43.9550 -90.9122 115° Southeast 464 534 32,300 1,113 Climbing Minneapolis Center
Tue 06:53:50 PM 43.8994 -90.7531 116° Southeast 461 531 33,500 1,161 Climbing Minneapolis Center
Tue 06:54:52 PM 43.8347 -90.5658 116° Southeast 453 521 34,700 726 Climbing Minneapolis Center
Tue 06:55:54 PM 43.7756 -90.3944 116° Southeast 456 525 35,000 145 Climbing Minneapolis Center
Tue 06:56:56 PM 43.7236 -90.2469 116° Southeast 468 539 35,000  Level Minneapolis Center
Tue 06:57:58 PM 43.6592 -90.0678 116° Southeast 476 548 35,000  Level Minneapolis Center
Tue 06:59:13 PM 43.6175 -89.8933 108° East 479 551 35,000  Level Minneapolis Center
Tue 07:00:15 PM 43.5706 -89.6578 105° East 479 551 35,000  Level Minneapolis Center
Tue 07:01:17 PM 43.5408 -89.4775 103° East 482 555 35,000  Level Minneapolis Center
Tue 07:02:19 PM 43.5097 -89.2972 103° East 483 556 35,000  Level Minneapolis Center
Tue 07:03:21 PM 43.4792 -89.1192 103° East 481 554 35,000  Level Minneapolis Center
Tue 07:04:19 PM 43.4469 -88.9403 104° East 483 556 35,000  Level Chicago Center
Tue 07:05:21 PM 43.4153 -88.7606 104° East 486 559 35,000  Level Chicago Center
Tue 07:06:23 PM 43.3794 -88.5597 104° East 487 560 35,000  Level Chicago Center
Tue 07:07:25 PM 43.3467 -88.3803 104° East 486 559 35,000  Level Chicago Center
Tue 07:08:26 PM 43.3156 -88.2053 104° East 477 549 35,000  Level Chicago Center
Tue 07:09:28 PM 43.2833 -88.0281 104° East 480 552 35,000  Level Chicago Center
Tue 07:10:30 PM 43.2511 -87.8525 104° East 476 548 35,000  Level Chicago Center
Tue 07:11:32 PM 43.2178 -87.6761 104° East 478 550 35,000  Level Chicago Center
Tue 07:12:34 PM 43.1792 -87.4719 104° East 475 547 35,000  Level Chicago Center
Tue 07:13:35 PM 43.1483 -87.3061 104° East 474 545 35,000  Level Chicago Center
Tue 07:14:37 PM 43.1150 -87.1325 105° East 474 545 35,000  Level Chicago Center
Tue 07:15:39 PM 43.0825 -86.9608 104° East 469 540 35,000  Level Chicago Center
Tue 07:16:41 PM 43.0489 -86.7906 105° East 466 536 35,000  Level Chicago Center
Tue 07:17:43 PM 43.0089 -86.5878 105° East 463 533 35,000  Level Chicago Center
Tue 07:18:45 PM 42.9756 -86.4236 105° East 454 522 35,000  Level Chicago Center
Tue 07:19:47 PM 42.9431 -86.2636 105° East 444 511 35,000  Level Chicago Center
Tue 07:20:49 PM 42.9097 -86.1061 106° East 442 509 35,000  Level Chicago Center
Tue 07:21:51 PM 42.8717 -85.9156 105° East 444 511 35,000  Level Chicago Center
Tue 07:22:52 PM 42.8397 -85.7556 105° East 445 512 35,000  Level Chicago Center
Tue 07:23:54 PM 42.8075 -85.5956 105° East 444 511 35,000  Level Chicago Center
Tue 07:24:56 PM 42.7683 -85.4406 109° East 438 504 35,000  Level Chicago Center
Tue 07:25:58 PM 42.7169 -85.2972 116° Southeast 426 490 35,000  Level Chicago Center
Tue 07:27:00 PM 42.6664 -85.1503 115° Southeast 428 493 35,000  Level Chicago Center
Tue 07:28:02 PM 42.6033 -84.9731 116° Southeast 435 501 35,000  Level Chicago Center
Tue 07:29:04 PM 42.5489 -84.8219 116° Southeast 445 512 35,000  Level Chicago Center
Tue 07:30:06 PM 42.4956 -84.6703 115° Southeast 446 513 35,000  Level Chicago Center
Tue 07:31:08 PM 42.4411 -84.5208 116° Southeast 442 509 35,000  Level Chicago Center
Tue 07:32:10 PM 42.3906 -84.3794 116° Southeast 438 504 35,000  Level Chicago Center
Tue 07:32:47 PM 42.3431 -84.2608 118° Southeast 441 507 35,000  Level Cleveland Center
Tue 07:33:47 PM 42.2892 -84.1144 116° Southeast 441 507 35,000  Level Cleveland Center
Tue 07:34:47 PM 42.2161 -83.9842 127° Southeast 441 507 35,000  Level Cleveland Center
Tue 07:35:47 PM 42.1442 -83.8767 132° Southeast 436 502 35,000  Level Cleveland Center
Tue 07:36:47 PM 42.0661 -83.7578 131° Southeast 431 496 35,000  Level Cleveland Center
Tue 07:37:47 PM 41.9839 -83.6364 132° Southeast 431 496 35,000  Level Cleveland Center
Tue 07:38:47 PM 41.9058 -83.5156 131° Southeast 431 496 35,000  Level Cleveland Center
Tue 07:39:47 PM 41.8275 -83.3978 132° Southeast 431 496 35,000  Level Cleveland Center
Tue 07:40:47 PM 41.7511 -83.2803 131° Southeast 426 490 35,000  Level Cleveland Center
Tue 07:41:47 PM 41.6744 -83.1603 131° Southeast 421 484 35,000  Level Cleveland Center
Tue 07:42:47 PM 41.5919 -83.0347 131° Southeast 421 484 35,000  Level Cleveland Center
Tue 07:43:47 PM 41.5131 -82.9181 132° Southeast 421 484 35,000  Level Cleveland Center
Tue 07:44:47 PM 41.4361 -82.8044 132° Southeast 421 484 35,000  Level Cleveland Center
Tue 07:45:47 PM 41.3611 -82.6911 131° Southeast 421 484 35,000  Level Cleveland Center
Tue 07:46:47 PM 41.2839 -82.5781 132° Southeast 421 484 35,000  Level Cleveland Center
Tue 07:47:47 PM 41.2044 -82.4625 132° Southeast 421 484 35,000  Level Cleveland Center
Tue 07:48:47 PM 41.1292 -82.3475 131° Southeast 421 484 35,000  Level Cleveland Center
Tue 07:49:47 PM 41.0686 -82.2108 120° Southeast 421 484 35,000  Level Cleveland Center
Tue 07:50:47 PM 41.0100 -82.0744 120° Southeast 429 494 35,000  Level Cleveland Center
Tue 07:51:47 PM 40.9514 -81.9383 120° Southeast 429 494 35,000  Level Cleveland Center
Tue 07:52:47 PM 40.8903 -81.8000 120° Southeast 429 494 35,000  Level Cleveland Center
Tue 07:53:47 PM 40.8417 -81.6756 117° Southeast 424 488 35,000  Level Cleveland Center
Tue 07:54:47 PM 40.7822 -81.5375 120° Southeast 424 488 35,000  Level Cleveland Center
Tue 07:55:47 PM 40.7144 -81.4075 124° Southeast 424 488 35,000  Level Cleveland Center
Tue 07:56:47 PM 40.6192 -81.3244 146° Southeast 407 468 35,000  Level Cleveland Center
Tue 07:57:47 PM 40.5156 -81.2331 146° Southeast 412 474 35,000  Level Cleveland Center
Tue 07:58:47 PM 40.4222 -81.1558 148° Southeast 407 468 35,000  Level Cleveland Center
Tue 07:59:47 PM 40.3289 -81.0733 146° Southeast 402 463 35,000  Level Cleveland Center
Tue 08:00:47 PM 40.2311 -80.9936 148° Southeast 408 470 35,000  Level Cleveland Center
Tue 08:01:47 PM 40.1439 -80.9172 146° Southeast 415 478 35,000  Level Cleveland Center
Tue 08:02:47 PM 40.0503 -80.8408 148° Southeast 410 472 35,000  Level Cleveland Center
Tue 08:03:47 PM 39.9669 -80.7428 138° Southeast 410 472 35,000  Level Cleveland Center
Tue 08:04:47 PM 39.8878 -80.6317 133° Southeast 410 472 35,000  Level Cleveland Center
Tue 08:05:47 PM 39.8067 -80.5208 134° Southeast 410 472 35,000 -150 Level Cleveland Center
Tue 08:06:47 PM 39.7272 -80.4103 133° Southeast 410 472 34,700 -650 Descending Cleveland Center
Tue 08:07:47 PM 39.6458 -80.2972 133° Southeast 421 484 33,700 -850 Descending Cleveland Center
Tue 08:08:47 PM 39.5619 -80.1844 134° Southeast 421 484 33,000 -350 Descending Cleveland Center
Tue 08:09:47 PM 39.4781 -80.0694 133° Southeast 426 490 33,000  Level Cleveland Center
Tue 08:11:46 PM 39.3158 -79.8411 133° Southeast 417 480 33,000 -398 Level Washington Center
Tue 08:12:48 PM 39.2856 -79.6892 104° East 427 491 31,800 -992 Descending Washington Center
Tue 08:13:47 PM 39.2742 -79.5275 95° East 441 507 31,000 -900 Descending Washington Center
Tue 08:14:48 PM 39.2608 -79.3661 96° East 455 524 30,000 -1,664 Descending Washington Center
Tue 08:15:46 PM 39.2469 -79.2072 96° East 455 524 27,700 -1,729 Descending Washington Center
Tue 08:16:46 PM 39.2408 -79.0567 93° East 437 503 26,600 -1,041 Descending Washington Center
Tue 08:17:47 PM 39.2889 -78.9089 67° East 425 489 25,600 -1,869 Descending Washington Center
Tue 08:18:48 PM 39.2844 -78.7611 92° East 413 475 22,800 -2,876 Descending Washington Center
Tue 08:19:48 PM 39.2422 -78.6225 111° Southeast 405 466 19,800 -2,900 Descending Washington Center
Tue 08:20:48 PM 39.2036 -78.4897 111° Southeast 405 466 17,000 -2,441 Descending Washington Center
Tue 08:21:46 PM 39.1631 -78.3597 112° Southeast 393 452 15,000 -1,017 Descending Washington Center
Tue 08:22:46 PM 39.1325 -78.2328 107° East 381 438 15,000  Level Washington Center
Tue 08:23:46 PM 39.0958 -78.0950 109° East 371 427 15,000 -550 Level Washington Center
Tue 08:24:46 PM 39.0628 -77.9708 109° East 371 427 13,900 -1,488 Descending Washington Center
Tue 08:25:47 PM 39.0319 -77.8469 108° East 371 427 12,000 -1,450 Descending Washington Center
Tue 08:26:46 PM 39.0008 -77.7283 109° East 358 412 11,000 -700 Descending Washington Center
Tue 08:27:47 PM 38.9736 -77.6156 107° East 344 396 10,600 -990 Descending Washington Center
Tue 08:28:29 PM 38.9500 -77.5333 110° East 321 369 9,300 -1,889 Descending Potomac TRACON
Tue 08:29:35 PM 38.9667 -77.4333 78° East 302 348 7,200 -1,857 Descending Potomac TRACON
Tue 08:30:35 PM 39.0000 -77.3333 67° East 299 344 5,400 -1,316 Descending Potomac TRACON
Tue 08:31:29 PM 39.0167 -77.2500 76° East 273 314 4,700 -835 Descending Potomac TRACON
Tue 08:32:30 PM 38.9833 -77.1667 117° Southeast 221 254 3,800 -885 Descending Potomac TRACON

Login

Don't have an account? Register now (free) for customized features, flight alerts, and more!